Time;durP1;ratioP1;P1;durP2;ratioP2;P2;SDS_P1;SDS_P2;PMS_P1;PMS_P2;Temp;Humidity;BMP_temperature;BMP_pressure;BME280_temperature;BME280_humidity;BME280_pressure;Samples;Min_cycle;Max_cycle;Signal;HPM_P1;HPM_P2
2022/03/05 00:01:06;;;;;;;;;86.75;71.00;;;;;5.99;54.40;99507.03;4987117;28;9571;-79
2022/03/05 00:03:35;;;;;;;;;79.00;63.67;;;;;5.70;51.58;99511.69;4970728;28;9580;-81
2022/03/05 00:06:05;;;;;;;;;88.67;69.67;;;;;5.66;52.77;99511.59;4971188;28;9195;-81
2022/03/05 00:08:34;;;;;;;;;89.75;72.25;;;;;5.62;53.66;99508.94;4971118;28;9417;-80
2022/03/05 00:11:04;;;;;;;;;90.25;70.75;;;;;5.57;52.95;99516.59;4967965;28;9849;-80
2022/03/05 00:13:33;;;;;;;;;92.67;70.67;;;;;5.55;53.33;99515.72;4936508;28;9730;-80
2022/03/05 00:16:02;;;;;;;;;89.50;71.00;;;;;5.50;53.14;99519.94;4935458;28;9344;-78
2022/03/05 00:18:30;;;;;;;;;92.33;68.67;;;;;5.43;53.60;99524.09;4903468;28;9858;-80
2022/03/05 00:20:59;;;;;;;;;89.33;72.00;;;;;5.42;53.37;99521.47;4951678;28;9441;-81
2022/03/05 00:23:30;;;;;;;;;86.33;70.00;;;;;5.35;53.31;99520.50;4944816;28;9603;-80
2022/03/05 00:25:59;;;;;;;;;86.00;68.00;;;;;5.31;52.83;99525.56;4985329;28;9256;-81
2022/03/05 00:28:27;;;;;;;;;83.00;65.33;;;;;5.23;52.58;99520.25;4985237;28;9355;-80
2022/03/05 00:31:00;;;;;;;;;78.25;62.00;;;;;5.13;52.59;99523.50;4983854;28;9195;-81
2022/03/05 00:33:28;;;;;;;;;72.00;60.00;;;;;5.11;51.65;99520.88;4985236;28;8870;-79
2022/03/05 00:35:57;;;;;;;;;75.50;60.00;;;;;5.14;51.67;99527.81;4967676;28;8969;-79
2022/03/05 00:38:26;;;;;;;;;80.00;63.50;;;;;5.14;51.25;99517.47;4984279;28;8887;-78
2022/03/05 00:40:58;;;;;;;;;71.25;57.75;;;;;5.15;50.78;99521.81;4968558;28;8852;-78
2022/03/05 00:43:26;;;;;;;;;85.67;65.67;;;;;5.08;50.84;99513.03;4967063;28;8867;-79
2022/03/05 00:45:55;;;;;;;;;85.67;66.67;;;;;5.06;51.69;99519.91;4968468;28;9025;-79
2022/03/05 00:48:24;;;;;;;;;87.67;66.33;;;;;4.94;51.56;99522.22;4974128;28;9111;-79
2022/03/05 00:50:53;;;;;;;;;87.33;68.67;;;;;4.82;52.21;99515.06;4990523;28;9134;-80
2022/03/05 00:53:22;;;;;;;;;88.33;69.00;;;;;4.81;51.96;99532.28;4956593;28;8944;-80
2022/03/05 00:55:50;;;;;;;;;83.67;65.33;;;;;4.78;51.88;99529.66;4974472;28;9883;-81
2022/03/05 00:58:21;;;;;;;;;83.00;63.25;;;;;4.78;51.72;99531.34;4993073;28;9110;-79
2022/03/05 01:00:52;;;;;;;;;87.75;64.75;;;;;4.74;51.49;99532.13;4976807;28;8904;-81
2022/03/05 01:03:22;;;;;;;;;79.67;65.33;;;;;4.71;51.84;99525.19;4993759;28;8906;-79
2022/03/05 01:05:51;;;;;;;;;79.75;63.00;;;;;4.63;51.40;99525.00;4993836;28;8950;-80
2022/03/05 01:08:20;;;;;;;;;84.33;65.67;;;;;4.60;51.58;99524.06;4977681;28;9000;-79
2022/03/05 01:10:49;;;;;;;;;88.00;67.67;;;;;4.49;51.42;99523.81;4977770;28;9236;-80
2022/03/05 01:13:17;;;;;;;;;86.67;65.33;;;;;4.45;51.71;99522.00;4977960;28;9196;-79
2022/03/05 01:15:48;;;;;;;;;78.67;64.33;;;;;4.41;52.06;99518.47;4976735;28;9169;-78
2022/03/05 01:18:19;;;;;;;;;84.67;61.33;;;;;4.38;51.84;99514.94;4991946;28;9150;-80
2022/03/05 01:20:48;;;;;;;;;82.33;65.00;;;;;4.32;51.60;99515.66;4997228;28;9740;-80
2022/03/05 01:23:17;;;;;;;;;83.67;64.67;;;;;4.22;51.96;99511.97;4994417;28;9032;-79
2022/03/05 01:25:45;;;;;;;;;89.33;69.00;;;;;4.20;51.68;99516.25;4994097;28;9100;-80
2022/03/05 01:28:15;;;;;;;;;89.00;68.67;;;;;4.18;51.94;99512.75;5010574;28;9364;-79
2022/03/05 01:30:43;;;;;;;;;75.67;59.00;;;;;4.20;51.51;99503.34;4994089;28;9183;-80
2022/03/05 01:33:15;;;;;;;;;86.67;65.33;;;;;4.23;51.38;99507.69;4993997;28;9030;-80
2022/03/05 01:35:45;;;;;;;;;83.00;65.00;;;;;4.26;51.22;99510.34;5012021;28;9129;-80
2022/03/05 01:38:14;;;;;;;;;78.50;61.25;;;;;4.29;50.98;99505.25;4997485;28;8842;-80
2022/03/05 01:40:43;;;;;;;;;77.33;59.67;;;;;4.32;51.31;99509.63;4994913;28;8854;-81
2022/03/05 01:43:12;;;;;;;;;79.00;63.75;;;;;4.32;51.30;99505.31;5009772;28;8953;-79
2022/03/05 01:45:41;;;;;;;;;78.75;63.50;;;;;4.34;50.66;99508.81;5010276;28;8964;-79
2022/03/05 01:48:10;;;;;;;;;82.00;64.00;;;;;4.33;50.68;99504.50;4960897;28;8861;-79
2022/03/05 01:50:40;;;;;;;;;88.67;67.00;;;;;4.29;50.94;99493.22;4993724;28;9206;-78
2022/03/05 01:53:10;;;;;;;;;79.67;65.33;;;;;4.28;50.58;99501.81;4993739;28;9147;-79
2022/03/05 01:55:39;;;;;;;;;87.33;69.00;;;;;4.29;50.82;99500.09;4944511;28;9187;-80
2022/03/05 01:58:08;;;;;;;;;83.00;63.00;;;;;4.28;50.78;99496.63;4992648;28;9888;-80
2022/03/05 02:00:37;;;;;;;;;87.33;66.67;;;;;4.26;50.66;99505.19;4961673;28;9098;-80
2022/03/05 02:03:06;;;;;;;;;78.33;62.00;;;;;4.21;51.47;99505.06;4993620;28;9193;-79
2022/03/05 02:05:35;;;;;;;;;81.25;65.00;;;;;4.20;51.20;99505.06;4993146;28;9182;-80
2022/03/05 02:08:06;;;;;;;;;79.00;64.00;;;;;4.16;51.12;99514.41;4993986;28;8870;-81
2022/03/05 02:10:35;;;;;;;;;81.33;64.00;;;;;4.11;50.83;99508.25;4995304;28;8861;-79
2022/03/05 02:13:04;;;;;;;;;85.33;66.67;;;;;4.11;51.19;99508.25;4995206;28;8990;-82
2022/03/05 02:15:33;;;;;;;;;91.33;70.67;;;;;4.11;51.40;99508.25;4993718;28;9031;-81
2022/03/05 02:18:02;;;;;;;;;87.33;67.33;;;;;4.05;51.17;99508.97;5009640;28;9196;-79
2022/03/05 02:20:32;;;;;;;;;77.25;62.25;;;;;3.95;51.40;99514.75;5010650;28;9175;-81
2022/03/05 02:23:03;;;;;;;;;73.25;56.75;;;;;3.85;51.74;99513.63;5009724;28;8850;-79
2022/03/05 02:25:32;;;;;;;;;75.00;61.00;;;;;3.75;52.09;99529.72;5009259;28;8854;-80
2022/03/05 02:28:02;;;;;;;;;72.00;57.50;;;;;3.68;51.94;99520.91;4993319;28;8881;-79
2022/03/05 02:30:30;;;;;;;;;76.25;60.50;;;;;3.64;52.14;99521.69;5009468;28;8881;-79
2022/03/05 02:32:59;;;;;;;;;76.25;59.00;;;;;3.65;52.07;99526.00;5009657;28;8838;-79
2022/03/05 02:35:28;;;;;;;;;73.50;59.75;;;;;3.65;51.85;99526.00;5010213;28;8857;-79
2022/03/05 02:37:59;;;;;;;;;69.00;56.00;;;;;3.64;51.95;99524.25;4994220;28;8923;-79
2022/03/05 02:40:27;;;;;;;;;70.50;57.50;;;;;3.64;52.00;99525.97;5010040;28;8943;-80
2022/03/05 02:42:56;;;;;;;;;67.50;55.25;;;;;3.66;51.61;99527.75;4993696;28;8885;-79
2022/03/05 02:45:25;;;;;;;;;74.50;60.50;;;;;3.66;51.65;99521.72;4993104;28;9644;-78
2022/03/05 02:47:53;;;;;;;;;74.75;58.50;;;;;3.59;51.73;99531.00;4975931;28;8873;-79
2022/03/05 02:50:22;;;;;;;;;72.25;58.00;;;;;3.60;51.85;99527.59;5009348;28;8877;-79
2022/03/05 02:52:52;;;;;;;;;70.75;56.25;;;;;3.60;52.24;99530.16;5009277;28;8870;-79
2022/03/05 02:55:22;;;;;;;;;80.75;63.50;;;;;3.61;51.80;99529.34;5008891;28;8878;-81
2022/03/05 02:57:52;;;;;;;;;68.00;56.75;;;;;3.61;52.24;99537.09;5009079;28;8862;-79
2022/03/05 03:00:21;;;;;;;;;75.00;61.75;;;;;3.54;52.06;99524.84;5009669;28;8915;-79
2022/03/05 03:02:49;;;;;;;;;60.75;49.50;;;;;3.50;52.29;99530.75;5009408;28;8869;-79
2022/03/05 03:05:19;;;;;;;;;80.75;62.25;;;;;3.35;52.94;99530.34;4988232;28;8887;-81
2022/03/05 03:07:49;;;;;;;;;73.00;58.00;;;;;3.30;52.73;99532.78;4972274;28;8938;-79
2022/03/05 03:10:18;;;;;;;;;72.50;58.50;;;;;3.26;52.84;99528.38;4988430;28;8845;-80
2022/03/05 03:12:48;;;;;;;;;80.00;60.00;;;;;3.20;53.08;99525.63;4971733;28;9003;-81
2022/03/05 03:15:17;;;;;;;;;72.50;56.75;;;;;3.18;53.31;99532.44;4971969;28;8883;-80
2022/03/05 03:17:48;;;;;;;;;74.50;59.75;;;;;3.14;53.17;99531.47;4972052;28;8861;-78
2022/03/05 03:20:20;;;;;;;;;69.50;56.00;;;;;3.16;53.52;99529.81;4989243;28;9663;-80
2022/03/05 03:22:49;;;;;;;;;70.75;59.25;;;;;3.16;52.98;99540.13;4972522;28;8861;-80
2022/03/05 03:25:18;;;;;;;;;73.75;55.00;;;;;3.15;52.98;99530.63;4955586;28;8891;-78
2022/03/05 03:27:49;;;;;;;;;64.00;54.25;;;;;3.17;53.23;99535.81;4987731;28;8825;-79
2022/03/05 03:30:19;;;;;;;;;73.75;56.00;;;;;3.16;52.87;99537.53;4971602;28;8983;-80
2022/03/05 03:32:49;;;;;;;;;65.75;54.00;;;;;3.16;52.89;99534.97;4971188;28;9015;-80
2022/03/05 03:35:19;;;;;;;;;75.50;56.25;;;;;3.17;52.53;99536.69;4972365;28;8868;-81
2022/03/05 03:37:48;;;;;;;;;71.25;58.75;;;;;3.15;52.81;99540.06;5010818;28;8836;-79
2022/03/05 03:40:18;;;;;;;;;68.50;57.00;;;;;3.13;52.98;99533.16;5010083;28;8844;-79
2022/03/05 03:42:51;;;;;;;;;70.00;54.00;;;;;3.13;52.81;99532.28;5010256;28;8848;-80
2022/03/05 03:45:20;;;;;;;;;72.00;58.50;;;;;3.12;52.59;99531.41;4993634;28;9637;-78
2022/03/05 03:47:51;;;;;;;;;58.75;46.50;;;;;3.11;52.99;99521.94;4994666;28;8852;-79
2022/03/05 03:50:21;;;;;;;;;72.00;55.25;;;;;3.11;53.02;99534.81;4994582;28;8995;-78
2022/03/05 03:52:51;;;;;;;;;74.75;59.00;;;;;3.09;53.06;99528.75;5011077;28;9086;-80
2022/03/05 03:55:22;;;;;;;;;69.25;56.50;;;;;3.09;53.37;99536.47;5010799;28;9695;-80
2022/03/05 03:57:53;;;;;;;;;63.50;52.00;;;;;3.09;53.10;99540.75;4994282;28;8871;-79
2022/03/05 04:00:22;;;;;;;;;70.50;58.50;;;;;3.07;53.37;99539.84;4974529;28;8866;-79
2022/03/05 04:02:51;;;;;;;;;70.50;57.50;;;;;3.05;53.21;99542.38;4991685;28;8858;-80
2022/03/05 04:05:20;;;;;;;;;68.50;54.25;;;;;3.03;53.12;99544.03;4991061;28;8897;-80
2022/03/05 04:10:36;;;;;;;;;73.50;57.25;;;;;2.95;53.49;99550.66;4986902;28;8899;-79
2022/03/05 04:13:06;;;;;;;;;71.25;56.00;;;;;2.89;53.41;99551.34;4987434;28;8833;-79
2022/03/05 04:15:34;;;;;;;;;60.00;51.50;;;;;2.85;53.62;99548.63;4970983;28;8873;-79
2022/03/05 04:18:04;;;;;;;;;67.50;56.00;;;;;2.80;53.92;99551.06;4977561;28;8895;-79
2022/03/05 04:20:33;;;;;;;;;17.75;3.00;;;;;2.78;53.78;99557.88;4966922;28;9060;-79
2022/03/05 04:23:02;;;;;;;;;89.33;70.00;;;;;2.77;53.90;99560.41;4967300;28;8909;-79
2022/03/05 04:25:31;;;;;;;;;74.75;59.50;;;;;2.71;54.09;99564.53;4966898;28;9404;-78
2022/03/05 04:28:00;;;;;;;;;64.75;52.50;;;;;2.72;53.88;99563.72;4954511;28;8874;-79
2022/03/05 04:30:30;;;;;;;;;68.00;53.50;;;;;2.70;53.94;99567.94;4914984;28;8854;-79
2022/03/05 04:32:59;;;;;;;;;64.50;52.50;;;;;2.66;54.21;99571.22;4920312;28;9641;-79
2022/03/05 04:35:28;;;;;;;;;66.25;50.00;;;;;2.59;54.04;99561.56;4936334;28;8875;-81
2022/03/05 04:37:57;;;;;;;;;54.50;45.50;;;;;2.56;53.92;99566.63;4935740;28;8875;-78
2022/03/05 04:40:26;;;;;;;;;58.50;48.25;;;;;2.52;53.99;99559.63;4935596;28;8907;-80
2022/03/05 04:42:54;;;;;;;;;65.75;47.75;;;;;2.50;53.92;99561.28;4938920;28;8879;-80
2022/03/05 04:45:23;;;;;;;;;67.50;55.75;;;;;2.40;53.80;99559.22;4970635;28;8883;-79
2022/03/05 04:47:54;;;;;;;;;58.25;47.50;;;;;2.35;54.43;99571.94;4954594;28;8871;-81
2022/03/05 04:50:22;;;;;;;;;57.00;47.50;;;;;2.37;53.84;99572.00;4935869;28;8878;-80
2022/03/05 04:52:51;;;;;;;;;64.75;50.00;;;;;2.37;53.84;99572.88;4951178;28;8906;-79
2022/03/05 04:55:20;;;;;;;;;62.25;48.25;;;;;2.34;53.97;99573.66;4932323;29;9072;-79
2022/03/05 04:57:49;;;;;;;;;49.75;46.75;;;;;2.38;54.30;99576.31;4900562;29;8877;-79
2022/03/05 05:00:18;;;;;;;;;82.67;66.00;;;;;2.38;54.11;99578.88;4947484;28;8856;-79
2022/03/05 05:02:46;;;;;;;;;61.00;52.50;;;;;2.41;53.87;99577.28;4984543;28;9088;-79
2022/03/05 05:05:17;;;;;;;;;61.50;47.75;;;;;2.42;53.67;99576.47;4986227;28;8864;-80
2022/03/05 05:07:46;;;;;;;;;63.50;48.00;;;;;2.41;53.68;99581.56;4970504;28;9058;-79
2022/03/05 05:10:15;;;;;;;;;55.50;47.75;;;;;2.37;53.83;99579.72;4956899;28;8875;-80
2022/03/05 05:12:43;;;;;;;;;58.75;48.25;;;;;2.36;53.60;99585.69;4974592;28;8993;-78
2022/03/05 05:15:12;;;;;;;;;59.00;48.00;;;;;2.37;53.85;99590.88;4970396;28;8852;-79
2022/03/05 05:17:41;;;;;;;;;97.25;73.25;;;;;2.34;53.62;99591.66;4971157;28;9022;-80
2022/03/05 05:20:12;;;;;;;;;73.50;57.25;;;;;2.36;53.63;99588.25;4957242;28;9640;-78
2022/03/05 05:22:42;;;;;;;;;93.33;69.33;;;;;2.37;53.73;99590.88;4976433;28;8871;-79
2022/03/05 05:25:11;;;;;;;;;71.00;53.00;;;;;2.41;53.37;99586.72;4971210;28;9273;-80
2022/03/05 05:27:40;;;;;;;;;69.75;55.75;;;;;2.42;53.41;99584.19;4975262;28;8859;-80
2022/03/05 05:30:10;;;;;;;;;61.50;47.00;;;;;2.43;53.04;99583.34;4972817;28;8863;-80
2022/03/05 05:32:39;;;;;;;;;67.00;53.25;;;;;2.45;53.21;99584.28;4969433;28;8963;-80
2022/03/05 05:35:09;;;;;;;;;68.00;53.75;;;;;2.48;53.08;99594.69;4990330;28;8853;-79
2022/03/05 05:37:37;;;;;;;;;62.75;51.00;;;;;2.52;53.16;99599.09;4902271;28;9000;-82
2022/03/05 05:40:10;;;;;;;;;54.25;46.00;;;;;2.55;53.09;99593.16;4949189;28;8992;-80
2022/03/05 05:42:38;;;;;;;;;67.25;54.25;;;;;2.59;53.11;99594.16;4920079;28;8920;-81
2022/03/05 05:45:09;;;;;;;;;57.00;40.50;;;;;2.62;53.15;99586.53;4933240;28;9000;-79
2022/03/05 05:47:38;;;;;;;;;32.00;22.25;;;;;2.65;52.85;99591.78;4932881;28;8866;-80
2022/03/05 05:50:08;;;;;;;;;66.25;53.75;;;;;2.69;53.24;99588.47;4950650;28;8842;-80
2022/03/05 05:52:38;;;;;;;;;70.25;53.50;;;;;2.73;53.10;99583.47;4935335;28;8896;-78
2022/03/05 05:55:08;;;;;;;;;66.75;52.75;;;;;2.81;53.02;99595.72;4916433;28;8961;-79
2022/03/05 05:57:37;;;;;;;;;50.00;46.25;;;;;2.86;52.82;99595.03;4913048;28;9047;-79
2022/03/05 06:00:07;;;;;;;;;66.50;53.00;;;;;2.93;52.49;99599.53;4916170;28;8969;-80
2022/03/05 06:02:44;;;;;;;;;69.25;56.25;;;;;3.01;52.50;99602.34;4933576;28;8857;-80
2022/03/05 06:05:13;;;;;;;;;62.25;50.75;;;;;3.03;52.25;99603.28;4900171;28;9612;-79
2022/03/05 06:07:41;;;;;;;;;68.00;53.50;;;;;3.06;51.69;99605.97;4914506;28;8869;-79
2022/03/05 06:10:12;;;;;;;;;67.00;52.25;;;;;3.07;51.43;99610.25;4951608;28;8861;-80
2022/03/05 06:12:41;;;;;;;;;65.75;51.25;;;;;3.06;50.61;99616.25;4967424;28;8871;-79
2022/03/05 06:15:11;;;;;;;;;67.50;52.25;;;;;3.10;50.51;99618.09;4973246;28;8861;-79
2022/03/05 06:17:42;;;;;;;;;67.00;50.25;;;;;3.18;50.15;99625.19;4956555;28;8910;-79
2022/03/05 06:20:12;;;;;;;;;56.75;47.25;;;;;3.26;49.73;99623.72;4945153;28;8883;-81
2022/03/05 06:22:42;;;;;;;;;56.50;49.00;;;;;3.34;49.58;99626.50;4957410;28;8894;-79
2022/03/05 06:25:12;;;;;;;;;66.25;54.00;;;;;3.38;49.36;99625.78;4973080;28;8879;-80
2022/03/05 06:27:42;;;;;;;;;63.25;51.25;;;;;3.52;49.44;99629.63;4961891;28;8875;-80
2022/03/05 06:30:11;;;;;;;;;59.50;50.50;;;;;3.65;48.87;99630.88;4975059;28;8878;-80
2022/03/05 06:32:41;;;;;;;;;41.50;40.50;;;;;3.79;48.81;99633.81;4973307;28;8867;-80
2022/03/05 06:35:10;;;;;;;;;73.25;60.00;;;;;3.89;48.59;99633.25;5007262;28;8985;-81
2022/03/05 06:37:39;;;;;;;;;65.75;55.25;;;;;3.97;48.62;99636.94;4956712;28;9004;-79
2022/03/05 06:40:11;;;;;;;;;67.75;55.75;;;;;4.04;48.29;99641.41;5006877;28;8977;-79
2022/03/05 06:42:44;;;;;;;;;66.25;55.00;;;;;4.13;48.21;99643.38;4992931;28;8874;-78
2022/03/05 06:45:14;;;;;;;;;70.00;55.25;;;;;4.15;47.71;99644.28;4976271;28;8972;-79
2022/03/05 06:47:43;;;;;;;;;68.50;58.25;;;;;4.21;47.48;99647.00;4976589;28;8862;-81
2022/03/05 06:50:12;;;;;;;;;61.00;49.25;;;;;4.30;47.15;99647.25;5013847;28;8977;-80
2022/03/05 06:52:41;;;;;;;;;63.00;49.75;;;;;4.42;47.46;99649.31;4992072;28;8878;-80
2022/03/05 06:55:14;;;;;;;;;70.50;52.75;;;;;4.54;46.90;99650.41;4996682;28;9622;-80
2022/03/05 06:57:46;;;;;;;;;64.00;54.00;;;;;4.64;47.05;99649.84;4963319;28;8952;-81
2022/03/05 07:00:15;;;;;;;;;65.25;55.25;;;;;4.75;46.49;99647.53;4990773;28;9742;-80
2022/03/05 07:02:44;;;;;;;;;66.50;52.50;;;;;4.87;46.69;99655.56;4987564;28;8959;-81
2022/03/05 07:05:14;;;;;;;;;67.75;52.00;;;;;4.95;46.24;99651.44;4975796;28;8881;-79
2022/03/05 07:07:43;;;;;;;;;59.25;47.00;;;;;4.97;45.40;99647.22;4935613;28;8907;-79
2022/03/05 07:10:12;;;;;;;;;54.00;47.75;;;;;5.13;45.45;99647.56;4956289;28;8882;-79
2022/03/05 07:12:42;;;;;;;;;67.50;51.75;;;;;5.21;45.87;99656.34;4959765;28;8861;-79
2022/03/05 07:15:12;;;;;;;;;68.00;53.25;;;;;5.24;45.06;99646.09;4943670;28;8870;-79
2022/03/05 07:17:47;;;;;;;;;61.75;48.75;;;;;5.36;44.71;99648.06;4967228;28;8869;-78
2022/03/05 07:20:16;;;;;;;;;52.25;46.50;;;;;5.42;44.33;99653.38;4911497;28;8871;-79
2022/03/05 07:22:45;;;;;;;;;63.25;50.00;;;;;5.44;44.29;99646.50;4956613;28;8881;-80
2022/03/05 07:25:14;;;;;;;;;70.50;52.75;;;;;5.47;44.26;99642.28;4938764;28;8906;-79
2022/03/05 07:27:43;;;;;;;;;65.00;52.25;;;;;5.42;43.68;99653.38;4959236;28;8843;-80
2022/03/05 07:30:14;;;;;;;;;59.00;48.00;;;;;5.44;43.69;99642.25;4976605;28;8886;-80
2022/03/05 07:32:44;;;;;;;;;54.50;48.50;;;;;5.61;44.22;99642.59;4996624;28;8946;-81
2022/03/05 07:35:13;;;;;;;;;47.00;42.50;;;;;5.43;43.46;99639.63;4994782;28;8893;-80
2022/03/05 07:37:42;;;;;;;;;48.00;43.25;;;;;5.35;43.42;99641.13;4980865;28;8902;-79
2022/03/05 07:40:11;;;;;;;;;48.75;41.00;;;;;5.41;43.13;99649.91;4977972;28;8886;-79
2022/03/05 07:42:40;;;;;;;;;54.50;44.00;;;;;5.61;43.42;99652.03;4972137;28;8863;-79
2022/03/05 07:45:09;;;;;;;;;63.25;49.50;;;;;5.61;43.68;99645.19;4971289;28;8977;-81
2022/03/05 07:47:40;;;;;;;;;58.50;44.00;;;;;5.61;43.43;99641.69;4976429;28;8856;-79
2022/03/05 07:50:09;;;;;;;;;54.25;44.25;;;;;5.65;42.97;99644.41;4981143;28;8875;-79
2022/03/05 07:52:38;;;;;;;;;53.25;42.25;;;;;5.80;42.69;99649.03;4964252;28;8869;-78
2022/03/05 07:55:08;;;;;;;;;59.50;44.50;;;;;5.92;42.82;99652.69;4979142;28;8863;-81
2022/03/05 07:57:37;;;;;;;;;43.00;35.50;;;;;6.03;42.36;99646.91;4994029;28;8848;-79
2022/03/05 08:00:07;;;;;;;;;64.00;48.00;;;;;6.13;41.89;99652.28;4981578;28;8891;-80
2022/03/05 08:02:52;;;;;;;;;58.75;47.75;;;;;6.14;41.69;99649.69;4986702;28;9081;-80
2022/03/05 08:05:22;;;;;;;;;61.00;49.00;;;;;6.18;41.66;99650.63;4979456;28;8867;-81
2022/03/05 08:07:51;;;;;;;;;48.50;42.25;;;;;6.13;41.00;99649.69;4981543;28;8893;-81
2022/03/05 08:10:19;;;;;;;;;36.50;31.25;;;;;6.08;41.56;99640.94;4983166;28;8856;-79
2022/03/05 08:12:48;;;;;;;;;47.25;40.00;;;;;6.20;41.26;99647.25;5000527;28;8939;-80
2022/03/05 08:15:17;;;;;;;;;49.75;40.75;;;;;6.30;41.01;99647.41;4981215;28;8847;-80
2022/03/05 08:17:50;;;;;;;;;52.50;42.50;;;;;6.30;41.11;99645.69;4962929;28;8965;-79
2022/03/05 08:20:21;;;;;;;;;48.75;43.25;;;;;6.32;41.11;99656.94;5003872;28;8939;-78
2022/03/05 08:22:50;;;;;;;;;50.75;43.25;;;;;6.41;40.76;99651.06;4965889;28;8883;-80
2022/03/05 08:25:20;;;;;;;;;43.00;39.25;;;;;6.34;40.42;99646.63;4953274;28;8867;-80
2022/03/05 08:27:49;;;;;;;;;42.50;36.50;;;;;6.46;40.31;99651.13;4999855;28;8857;-81
2022/03/05 08:30:19;;;;;;;;;37.25;36.00;;;;;6.51;40.19;99655.56;4959796;28;8871;-81
2022/03/05 08:32:47;;;;;;;;;51.75;43.25;;;;;6.57;40.76;99659.97;4971534;28;8871;-74
2022/03/05 08:35:18;;;;;;;;;48.25;40.00;;;;;6.64;39.95;99654.06;4925841;28;8937;-77
2022/03/05 08:37:48;;;;;;;;;47.25;40.25;;;;;6.72;40.00;99657.63;4940737;28;8883;-76
2022/03/05 08:40:17;;;;;;;;;46.50;40.50;;;;;6.67;39.82;99661.00;4972369;28;8852;-74
2022/03/05 08:42:48;;;;;;;;;51.25;44.00;;;;;6.58;39.80;99664.31;4962410;28;8971;-74
2022/03/05 08:45:16;;;;;;;;;51.00;40.75;;;;;6.55;39.82;99672.88;4977056;28;8850;-78
2022/03/05 08:47:45;;;;;;;;;46.00;39.00;;;;;6.68;39.73;99662.75;4994867;28;8870;-75
2022/03/05 08:50:14;;;;;;;;;48.50;37.50;;;;;6.75;39.62;99669.78;4964215;28;9002;-69
2022/03/05 08:52:42;;;;;;;;;46.50;41.00;;;;;6.80;39.45;99666.41;4995441;28;8903;-75
2022/03/05 08:55:16;;;;;;;;;51.00;43.50;;;;;6.77;39.82;99665.50;5003795;28;8944;-77
2022/03/05 08:57:46;;;;;;;;;47.00;36.50;;;;;6.88;39.41;99666.56;5008987;28;8846;-75
2022/03/05 09:00:16;;;;;;;;;51.25;41.25;;;;;6.70;40.01;99666.25;4998981;28;8880;-74
2022/03/05 09:02:45;;;;;;;;;57.75;43.50;;;;;6.86;39.92;99663.03;4992396;28;8893;-74
2022/03/05 09:05:14;;;;;;;;;58.25;43.50;;;;;6.96;39.62;99661.50;5009296;28;8897;-73
2022/03/05 09:07:45;;;;;;;;;53.25;44.50;;;;;7.03;39.49;99659.00;4993010;28;8884;-73
2022/03/05 09:10:15;;;;;;;;;60.25;45.50;;;;;7.15;39.72;99666.09;4974676;28;8866;-74
2022/03/05 09:12:44;;;;;;;;;37.25;34.50;;;;;7.23;39.40;99655.84;4996909;28;8873;-73
2022/03/05 09:15:12;;;;;;;;;46.25;40.50;;;;;7.30;38.80;99664.59;4977234;28;8891;-74
2022/03/05 09:17:42;;;;;;;;;51.75;42.25;;;;;7.21;38.54;99657.53;5007867;28;9686;-73
2022/03/05 09:20:11;;;;;;;;;47.25;42.00;;;;;7.29;38.73;99662.84;4989552;28;8849;-74
2022/03/05 09:22:40;;;;;;;;;57.75;43.00;;;;;7.27;38.72;99661.94;4986818;28;9057;-73
2022/03/05 09:25:10;;;;;;;;;36.75;34.75;;;;;7.28;38.59;99668.88;4968819;28;8886;-74
2022/03/05 09:27:41;;;;;;;;;42.00;35.00;;;;;7.32;38.36;99668.94;4971389;28;8871;-73
2022/03/05 09:30:10;;;;;;;;;41.00;39.25;;;;;7.35;38.56;99666.41;4985173;28;8871;-72
2022/03/05 09:32:39;;;;;;;;;42.00;40.50;;;;;7.43;39.04;99658.72;4971588;28;8844;-73
2022/03/05 09:35:08;;;;;;;;;39.25;32.75;;;;;7.45;38.18;99649.25;4968112;28;8890;-75
2022/03/05 09:37:37;;;;;;;;;42.50;39.25;;;;;7.22;39.32;99657.56;4968897;28;8859;-74
2022/03/05 09:40:13;;;;;;;;;53.25;43.50;;;;;7.35;38.98;99650.84;4972890;28;8887;-73
2022/03/05 09:42:45;;;;;;;;;48.50;42.25;;;;;7.39;38.86;99641.34;4969088;28;8986;-73
2022/03/05 09:45:15;;;;;;;;;53.75;42.75;;;;;7.48;39.19;99651.00;4984334;28;8878;-74
2022/03/05 09:47:45;;;;;;;;;50.25;43.50;;;;;7.55;38.91;99652.81;4970740;28;8883;-74
2022/03/05 09:50:14;;;;;;;;;46.50;41.00;;;;;7.62;38.58;99657.25;4990060;28;8905;-68
2022/03/05 09:52:42;;;;;;;;;47.00;39.00;;;;;7.68;38.38;99652.13;5006128;28;8982;-74
2022/03/05 09:55:11;;;;;;;;;51.50;42.00;;;;;7.63;38.39;99650.34;4972944;28;8879;-74
2022/03/05 09:57:40;;;;;;;;;45.25;41.00;;;;;7.55;38.49;99651.09;4989573;28;8881;-77
2022/03/05 10:00:11;;;;;;;;;46.25;38.25;;;;;7.61;39.11;99637.34;5013641;28;9671;-73
2022/03/05 10:02:41;;;;;;;;;56.25;43.75;;;;;7.73;39.01;99641.81;4995827;28;8872;-75
2022/03/05 10:05:19;;;;;;;;;56.00;46.00;;;;;7.70;38.19;99641.78;4991058;28;8888;-72
2022/03/05 10:08:15;;;;;;;;;51.50;42.50;;;;;7.67;38.79;99636.53;5004637;28;8872;-73
2022/03/05 10:10:49;;;;;;;;;55.00;43.00;;;;;7.81;38.91;99641.06;4982999;28;8865;-71
2022/03/05 10:13:20;;;;;;;;;45.25;39.25;;;;;7.88;38.12;99634.22;4987151;28;8845;-75
2022/03/05 10:15:52;;;;;;;;;55.25;41.25;;;;;7.89;38.18;99645.47;4935877;28;8859;-74
2022/03/05 10:18:29;;;;;;;;;44.75;40.00;;;;;7.99;38.44;99626.53;4967383;28;9009;-74
2022/03/05 10:21:00;;;;;;;;;49.25;42.50;;;;;8.10;38.66;99619.72;4931455;28;8957;-74
2022/03/05 10:23:34;;;;;;;;;44.25;38.25;;;;;7.94;37.83;99621.31;4930780;28;8912;-74
2022/03/05 10:26:04;;;;;;;;;40.00;37.25;;;;;8.06;38.13;99617.09;4954857;28;8994;-75
2022/03/05 10:28:34;;;;;;;;;61.00;46.50;;;;;7.30;39.48;99618.78;4979852;28;9006;-77
2022/03/05 10:31:07;;;;;;;;;47.25;42.25;;;;;7.40;39.93;99617.16;4933931;28;8979;-75
2022/03/05 10:33:37;;;;;;;;;48.75;41.75;;;;;7.67;39.24;99618.38;4948107;28;8915;-75
2022/03/05 10:36:09;;;;;;;;;52.75;42.00;;;;;7.83;39.49;99625.50;4947849;28;8940;-74
2022/03/05 10:38:44;;;;;;;;;7.50;4.25;;;;;8.00;38.89;99612.72;4948461;28;8911;-75
2022/03/05 10:41:14;;;;;;;;;45.00;41.00;;;;;8.06;38.59;99612.78;4948148;28;8946;-74
2022/03/05 10:43:44;;;;;;;;;50.50;42.75;;;;;8.17;38.79;99610.28;4932096;28;8870;-75
2022/03/05 10:46:14;;;;;;;;;39.00;35.00;;;;;8.24;38.29;99612.09;4900961;28;8968;-75
2022/03/05 10:48:45;;;;;;;;;50.75;38.75;;;;;8.36;38.54;99612.19;4967012;28;8885;-74
2022/03/05 10:51:17;;;;;;;;;57.00;43.00;;;;;8.33;38.17;99611.31;4947227;28;9013;-74
2022/03/05 10:53:47;;;;;;;;;48.00;41.75;;;;;8.50;37.89;99607.16;4932957;28;8873;-74
2022/03/05 10:56:32;;;;;;;;;50.50;43.25;;;;;8.37;38.67;99606.16;4948884;28;8959;-76
2022/03/05 10:59:12;;;;;;;;;51.75;42.75;;;;;8.51;38.24;99595.91;4948858;28;9034;-76
2022/03/05 11:01:43;;;;;;;;;58.25;44.00;;;;;8.68;38.24;99598.66;4958895;28;8867;-74
2022/03/05 11:04:13;;;;;;;;;58.75;47.50;;;;;8.83;38.37;99597.00;4986625;28;8859;-75
2022/03/05 11:06:43;;;;;;;;;48.25;40.25;;;;;9.03;36.94;99594.56;4970889;28;8879;-74
2022/03/05 11:09:13;;;;;;;;;49.00;42.50;;;;;8.94;37.32;99580.66;4970291;28;8871;-75
2022/03/05 11:11:44;;;;;;;;;52.25;44.50;;;;;8.86;37.62;99590.09;4986929;28;8894;-76
2022/03/05 11:14:14;;;;;;;;;10.75;5.25;;;;;9.07;36.96;99585.91;4986974;28;8883;-78
2022/03/05 11:16:45;;;;;;;;;53.00;43.75;;;;;9.24;37.75;99581.66;4972952;28;8859;-76
2022/03/05 11:19:15;;;;;;;;;43.50;38.50;;;;;9.34;36.37;99575.66;4978920;28;8910;-74
2022/03/05 11:21:44;;;;;;;;;55.75;44.00;;;;;9.33;36.78;99586.94;4986060;28;8975;-74
2022/03/05 11:24:15;;;;;;;;;54.75;44.00;;;;;9.37;35.64;99572.19;4967393;28;11484;-74
2022/03/05 11:26:48;;;;;;;;;59.50;46.50;;;;;9.50;36.02;99571.38;4973107;28;11132;-76
2022/03/05 11:29:53;;;;;;;;;62.50;50.75;;;;;9.78;35.55;99560.22;4985445;28;8868;-74
2022/03/05 11:32:29;;;;;;;;;56.25;43.50;;;;;9.85;35.14;99548.94;4989703;28;9031;-75
2022/03/05 11:34:57;;;;;;;;;55.25;43.00;;;;;9.99;34.98;99552.44;4987506;28;8939;-76
2022/03/05 11:37:33;;;;;;;;;56.75;43.75;;;;;10.17;35.00;99540.31;4981603;28;8814;-74
2022/03/05 11:40:03;;;;;;;;;52.75;45.75;;;;;10.36;35.40;99549.03;4945257;28;8977;-76
2022/03/05 11:42:34;;;;;;;;;44.75;39.50;;;;;10.47;34.38;99540.38;4987266;28;8875;-76
2022/03/05 11:45:27;;;;;;;;;44.50;40.25;;;;;10.54;34.01;99534.25;4970364;28;8856;-77
2022/03/05 11:48:26;;;;;;;;;39.75;37.00;;;;;10.62;34.40;99531.66;4987671;28;8966;-75
2022/03/05 11:50:57;;;;;;;;;55.75;43.25;;;;;10.72;33.88;99528.19;4971576;28;8885;-77